Rogers Spring, Nevada Weather observations

Data are for 10 minute period ending at time listed.
 Day   Time   Solar   Ave.   Ave.  Ave.  Vector  Max.   Baro.   Total    
  of    of     Rad.   Air    Rel.  Wind   Wind   Wind  Press.  Precip.   
Year   Day            Temp.  Hum.  Speed  Dir.   Gust                    
2014   (PST)  Kw/m2    F      %     mph   deg.    mph    mb.     in.     
-------------------------------------------------------------------------
 354    9:50   0.26   42.8    88    2.1   295     3.7   940.4    0.00 
 354   10:00   0.35   44.5    86    1.0   296     2.7   940.2    0.00 
 354   10:10   0.37   45.8    81    2.1   278     4.7   940.2    0.00 
 354   10:20   0.37   47.0    76    1.1   229     3.2   940.0    0.00 
 354   10:30   0.37   48.9    71    1.2   224     3.4   939.9    0.00 
 354   10:40   0.38   49.0    70    1.8   211     4.5   939.8    0.00 
 354   10:50   0.41   50.1    67    1.8   179     4.0   939.6    0.00 
 354   11:00   0.39   50.3    65    2.0   195     4.7   939.4    0.00 
 354   11:10   0.28   49.4    64    2.5   158     4.6   939.2    0.00 
 354   11:20   0.44   50.4    63    1.7   155     4.2   939.2    0.00 
 354   11:30   0.51   51.9    60    1.3   134     4.0   939.3    0.00 
 354   11:40   0.56   52.6    58    2.8   106     5.5   938.7    0.00 
 354   11:50   0.51   52.5    58    2.1   104     4.2   938.8    0.00 
 354   12:00   0.44   52.9    56    2.0   148     4.2   938.9    0.00 
 354   12:10   0.36   53.3    54    1.3   137     3.5   938.9    0.00 
 354   12:20   0.31   52.6    55    2.1    70     4.9   938.7    0.00 
 354   12:30   0.38   52.9    54    3.5    60     6.1   938.5    0.00 
 354   12:40   0.30   52.8    54    3.4    51     6.3   938.3    0.00 
 354   12:50   0.23   52.2    56    2.9    85     5.0   938.1    0.00 
 354   13:00   0.15   51.7    57    2.4    82     4.2   938.1    0.00 
 354   13:10   0.11   51.3    58    2.1    75     3.8   937.9    0.00 
 354   13:20   0.17   51.2    59    2.1    90     3.4   937.7    0.00 
 354   13:30   0.37   52.8    56    2.0   120     3.7   937.4    0.00 
 354   13:40   0.16   52.6    56    1.4    84     2.7   937.1    0.00 
 354   13:50   0.21   52.3    56    1.0    72     2.0   936.8    0.00 
 354   14:00   0.39   54.4    52    1.0    81     3.4   936.6    0.00 
 354   14:10   0.18   54.4    52    1.5   207     3.3   936.8    0.00 
 354   14:20   0.28   53.8    53    1.4    14     3.3   936.9    0.00 
 354   14:30   0.26   54.4    52    1.7   353     3.9   937.1    0.00 
 354   14:40   0.31   55.0    51    2.1   327     4.4   937.2    0.00 
 354   14:50   0.28   55.2    50    2.2   302     5.0   937.2    0.00 
 354   15:00   0.26   55.6    50    2.0   177     5.3   937.0    0.00 
 354   15:10   0.24   55.2    50    1.5     3     3.6   937.2    0.00 
 354   15:20   0.16   55.0    50    2.1   322     4.1   937.9    0.00 
 354   15:30   0.07   53.4    53    2.7   334     3.9   938.2    0.00 
 354   15:40   0.07   52.3    56    1.4   322     3.2   938.1    0.00 
 354   15:50   0.07   52.7    55    0.4   280     1.6   937.9    0.00 
 354   16:00   0.05   51.8    58    1.1   227     1.7   937.9    0.00 
 354   16:10   0.04   51.0    59    1.1   181     1.6   937.5    0.00 
 354   16:20   0.02   49.7    62    1.0   163     1.7   937.3    0.00 
 354   16:30   0.01   48.2    66    1.0   321     1.9   937.9    0.00 
 354   16:40   0.00   46.2    70    0.5    34     1.2   938.0    0.00 
 354   16:50   0.00   45.5    71    0.3   169     1.4   937.7    0.00 
 354   17:00   0.00   43.8    74    0.8   154     1.4   937.8    0.00 
 354   17:10   0.00   42.4    77    0.9   136     1.2   937.8    0.00 
 354   17:20   0.00   42.1    79    0.9   130     1.2   937.8    0.00 
 354   17:30   0.00   41.2    82    0.0     0     0.0   938.2    0.00 
 354   17:40   0.00   40.3    84    0.1   130     0.7   938.5    0.00 
 354   17:50   0.00   40.0    87    0.7    33     2.4   938.6    0.00 
 354   18:00   0.00   39.6    88    1.3    50     2.3   938.8    0.00 
 354   18:10   0.00   40.2    88    1.9    70     2.5   938.8    0.00 
 354   18:20   0.00   41.3    86    2.1    69     2.5   938.9    0.00 
 354   18:30   0.00   39.8    86    1.3    74     2.3   938.9    0.00 
 354   18:40   0.00   40.7    87    2.6    79     3.7   938.7    0.00 
 354   18:50   0.00   40.9    86    2.2    56     2.7   938.9    0.00 
 354   19:00   0.00   39.8    88    2.5    53     3.2   939.2    0.00 
 354   19:10   0.00   39.3    90    2.8    58     3.8   939.2    0.00 
 354   19:20   0.00   39.5    91    2.2    70     3.2   939.3    0.00 
 354   19:30   0.00   39.1    91    1.2    81     2.3   939.4    0.00 
 354   19:40   0.00   38.1    91    1.6    84     2.3   939.5    0.00 
 354   19:50   0.00   38.3    92    2.3    80     3.2   939.5    0.00 
 354   20:00   0.00   37.8    92    2.5    65     2.9   939.6    0.00 
 354   20:10   0.00   38.1    93    2.3    67     3.1   939.7    0.00 
 354   20:20   0.00   37.3    92    2.0    51     2.6   939.9    0.00 
 354   20:30   0.00   37.1    94    2.1    79     3.2   939.7    0.00 
 354   20:40   0.00   38.1    94    3.0    78     4.4   939.8    0.00 
 354   20:50   0.00   39.6    91    3.0    68     3.9   939.9    0.00 
 354   21:00   0.00   39.7    90    2.5    67     4.2   940.0    0.00 
 354   21:10   0.00   39.3    90    2.8    65     4.2   940.1    0.00 
 354   21:20   0.00   38.6    90    1.4    43     2.3   940.2    0.00 
 354   21:30   0.00   36.8    91    3.0    48     4.2   940.2    0.00 
 354   21:40   0.00   36.8    93    3.0    60     4.2   940.1    0.00 
 354   21:50   0.00   37.1    94    2.9    71     3.9   940.0    0.00 
 354   22:00   0.00   36.8    93    2.4    52     3.6   940.0    0.00 
 354   22:10   0.00   36.7    94    2.9    69     3.7   940.0    0.00 
 354   22:20   0.00   36.3    94    3.2    64     5.3   940.2    0.00 
 354   22:30   0.00   36.3    94    2.8    56     3.9   940.3    0.00 
 354   22:40   0.00   35.1    95    3.4    54     4.5   940.5    0.00 
 354   22:50   0.00   35.2    96    2.5    56     4.1   940.6    0.00 
 354   23:00   0.00   35.2    96    3.0    67     3.9   940.7    0.00 
 354   23:10   0.00   36.1    96    2.4    77     4.5   940.5    0.00 
 354   23:20   0.00   36.2    96    2.3    80     3.6   940.4    0.00 
 354   23:30   0.00   37.2    96    3.2    88     4.7   940.3    0.00 
 354   23:40   0.00   38.1    95    2.7    79     4.5   940.3    0.00 
 354   23:50   0.00   36.8    94    1.2   230     2.2   940.2    0.00 
 355    0:00   0.00   34.6    94    0.2    86     1.9   940.4    0.00 
 355    0:10   0.00   33.9    95    1.5    89     2.7   940.3    0.00 
 355    0:20   0.00   34.0    96    1.7    36     2.5   940.4    0.00 
 355    0:30   0.00   33.6    96    2.2    72     3.0   940.4    0.00 
 355    0:40   0.00   33.3    96    2.5    62     3.7   940.3    0.00 
 355    0:50   0.00   33.5    97    2.9    78     4.2   940.5    0.00 
 355    1:00   0.00   34.6    97    2.9    95     4.5   940.5    0.00 
 355    1:10   0.00   35.9    97    3.2    86     5.2   940.2    0.00 
 355    1:20   0.00   35.9    96    3.1    65     4.5   940.2    0.00 
 355    1:30   0.00   35.2    96    2.4    58     3.5   940.3    0.00 
 355    1:40   0.00   34.7    96    2.5    61     3.2   940.2    0.00 
 355    1:50   0.00   34.0    96    2.0    68     2.9   940.2    0.00 
 355    2:00   0.00   33.2    96    1.9    56     2.6   940.0    0.00 
 355    2:10   0.00   33.0    97    2.2    55     3.4   940.1    0.00 
 355    2:20   0.00   33.0    97    2.0    47     2.9   940.3    0.00 
 355    2:30   0.00   32.7    97    1.3   104     2.3   940.2    0.00 
 355    2:40   0.00   32.7    97    1.2    86     2.2   940.0    0.00 
 355    2:50   0.00   33.6    98    0.6   144     2.0   939.9    0.00 
 355    3:00   0.00   33.1    97    0.7   143     1.5   940.0    0.00 
 355    3:10   0.00   32.8    97    0.4   191     1.8   940.0    0.00 
 355    3:20   0.00   31.5    97    1.0    19     1.8   940.1    0.00 
 355    3:30   0.00   32.5    98    1.6    64     2.3   940.2    0.00 
 355    3:40   0.00   32.6    98    1.4    46     2.2   940.1    0.00 
 355    3:50   0.00   32.5    98    1.0    13     2.3   940.0    0.00 
 355    4:00   0.00   33.1    98    2.4    76     3.8   940.0    0.00 
 355    4:10   0.00   33.9    98    1.5    94     3.7   939.6    0.00 
 355    4:20   0.00   33.9    98    1.9    66     3.2   939.7    0.00 
 355    4:30   0.00   34.3    98    2.3    75     3.5   939.9    0.00 
 355    4:40   0.00   35.2    98    2.9    88     4.0   939.6    0.00 
 355    4:50   0.00   35.9    98    1.5    91     2.6   939.5    0.00 
 355    5:00   0.00   34.2    97    0.7   306     1.9   939.5    0.00 
 355    5:10   0.00   33.2    97    1.7    28     2.7   939.6    0.00 
 355    5:20   0.00   33.2    98    2.4    65     3.7   939.8    0.00 
 355    5:30   0.00   33.4    98    1.3    60     2.0   939.9    0.00 
 355    5:40   0.00   33.2    98    2.0    62     4.3   940.0    0.00 
 355    5:50   0.00   33.1    98    3.3    71     5.3   939.7    0.00 
 355    6:00   0.00   33.5    98    2.6    73     4.3   939.6    0.00 
 355    6:10   0.00   34.1    98    1.7    57     2.6   939.6    0.00 
 355    6:20   0.00   34.0    98    1.9    60     2.6   939.8    0.00 
 355    6:30   0.00   34.0    98    2.0    83     3.3   939.8    0.00 
 355    6:40   0.00   32.9    97    2.4    56     3.4   939.9    0.00 
 355    6:50   0.00   32.4    98    2.1    58     2.9   939.9    0.00 
 355    7:00   0.00   32.4    98    1.2    55     2.4   940.1    0.00 
 355    7:10   0.01   32.3    98    2.4    61     3.8   940.2    0.00 
 355    7:20   0.02   32.8    98    1.5    81     2.6   940.3    0.00 
 355    7:30   0.03   33.1    98    0.7   105     2.3   940.3    0.00 
 355    7:40   0.04   33.4    98    0.0   131     0.4   940.3    0.00 
 355    7:50   0.05   34.1    98    0.3   113     1.1   940.3    0.00 
 355    8:00   0.06   35.2    98    1.0    57     1.3   940.3    0.00 
 355    8:10   0.07   36.2    98    0.1    55     1.0   940.2    0.00 
 355    8:20   0.08   37.1    98    0.4   198     1.5   940.2    0.00 
 355    8:30   0.10   37.9    97    0.2   161     1.2   940.3    0.00 
 355    8:40   0.11   38.5    97    0.1   349     1.1   940.3    0.00 
 355    8:50   0.18   39.1    97    0.6    82     1.2   940.4    0.00 
 355    9:00   0.24   40.3    96    1.2     9     2.6   940.5    0.00 
 355    9:10   0.21   40.4    95    1.6    38     3.0   940.5    0.00 
 355    9:20   0.24   40.6    94    1.7    33     3.2   940.5    0.00 
 355    9:30   0.30   42.6    92    0.9    18     2.5   940.5    0.00 
 355    9:40   0.27   43.6    88    1.4    15     3.2   940.6    0.00 

Return to Rogers Spring graphs page.


Western Regional Climate Center,wrcc@dri.edu